sensor_id;sensor_type;location;lat;lon;timestamp;temperature;humidity
23532;DHT22;11943;52.270;20.978;2023-04-24T00:01:29;14.20;68.60
23532;DHT22;11943;52.270;20.978;2023-04-24T00:03:55;14.20;68.90
23532;DHT22;11943;52.270;20.978;2023-04-24T00:06:27;14.10;68.80
23532;DHT22;11943;52.270;20.978;2023-04-24T00:09:02;14.10;68.90
23532;DHT22;11943;52.270;20.978;2023-04-24T00:11:28;14.10;69.00
23532;DHT22;11943;52.270;20.978;2023-04-24T00:13:53;14.00;69.20
23532;DHT22;11943;52.270;20.978;2023-04-24T00:16:19;14.00;69.90
23532;DHT22;11943;52.270;20.978;2023-04-24T00:18:45;13.90;70.60
23532;DHT22;11943;52.270;20.978;2023-04-24T00:21:13;13.90;71.30
23532;DHT22;11943;52.270;20.978;2023-04-24T00:23:38;13.90;71.00
23532;DHT22;11943;52.270;20.978;2023-04-24T00:26:04;13.80;71.60
23532;DHT22;11943;52.270;20.978;2023-04-24T00:28:30;13.80;71.70
23532;DHT22;11943;52.270;20.978;2023-04-24T00:30:55;13.70;71.90
23532;DHT22;11943;52.270;20.978;2023-04-24T00:33:21;13.70;73.70
23532;DHT22;11943;52.270;20.978;2023-04-24T00:35:47;13.60;75.80
23532;DHT22;11943;52.270;20.978;2023-04-24T00:38:12;13.50;75.00
23532;DHT22;11943;52.270;20.978;2023-04-24T00:40:38;13.50;75.70
23532;DHT22;11943;52.270;20.978;2023-04-24T00:43:04;13.30;76.20
23532;DHT22;11943;52.270;20.978;2023-04-24T00:45:29;13.30;76.80
23532;DHT22;11943;52.270;20.978;2023-04-24T00:47:57;13.20;77.30
23532;DHT22;11943;52.270;20.978;2023-04-24T00:50:24;13.20;78.30
23532;DHT22;11943;52.270;20.978;2023-04-24T00:52:49;13.10;80.10
23532;DHT22;11943;52.270;20.978;2023-04-24T00:55:16;13.10;82.10
23532;DHT22;11943;52.270;20.978;2023-04-24T00:57:42;12.90;83.20
23532;DHT22;11943;52.270;20.978;2023-04-24T01:00:09;12.90;82.60
23532;DHT22;11943;52.270;20.978;2023-04-24T01:02:40;12.80;84.30
23532;DHT22;11943;52.270;20.978;2023-04-24T01:05:09;12.80;85.30
23532;DHT22;11943;52.270;20.978;2023-04-24T01:07:36;12.70;85.70
23532;DHT22;11943;52.270;20.978;2023-04-24T01:10:02;12.60;86.60
23532;DHT22;11943;52.270;20.978;2023-04-24T01:12:28;12.60;88.10
23532;DHT22;11943;52.270;20.978;2023-04-24T01:14:54;12.60;88.30
23532;DHT22;11943;52.270;20.978;2023-04-24T01:17:20;12.60;90.50
23532;DHT22;11943;52.270;20.978;2023-04-24T01:19:46;12.60;91.70
23532;DHT22;11943;52.270;20.978;2023-04-24T01:22:15;12.60;91.40
23532;DHT22;11943;52.270;20.978;2023-04-24T01:24:42;12.60;91.00
23532;DHT22;11943;52.270;20.978;2023-04-24T01:27:10;12.60;92.50
23532;DHT22;11943;52.270;20.978;2023-04-24T01:29:36;12.60;94.10
23532;DHT22;11943;52.270;20.978;2023-04-24T01:32:03;12.50;95.90
23532;DHT22;11943;52.270;20.978;2023-04-24T01:34:29;12.50;96.00
23532;DHT22;11943;52.270;20.978;2023-04-24T01:36:55;12.50;96.10
23532;DHT22;11943;52.270;20.978;2023-04-24T01:39:22;12.40;95.60
23532;DHT22;11943;52.270;20.978;2023-04-24T01:41:49;12.40;96.30
23532;DHT22;11943;52.270;20.978;2023-04-24T01:44:15;12.40;96.40
23532;DHT22;11943;52.270;20.978;2023-04-24T01:46:41;12.40;96.90
23532;DHT22;11943;52.270;20.978;2023-04-24T01:49:07;12.40;97.50
23532;DHT22;11943;52.270;20.978;2023-04-24T01:51:33;12.30;98.30
23532;DHT22;11943;52.270;20.978;2023-04-24T01:53:58;12.30;98.50
23532;DHT22;11943;52.270;20.978;2023-04-24T01:56:25;12.30;98.80
23532;DHT22;11943;52.270;20.978;2023-04-24T01:58:52;12.20;97.80
23532;DHT22;11943;52.270;20.978;2023-04-24T02:01:19;12.20;98.10
23532;DHT22;11943;52.270;20.978;2023-04-24T02:03:46;12.20;99.20
23532;DHT22;11943;52.270;20.978;2023-04-24T02:06:11;12.20;99.90
23532;DHT22;11943;52.270;20.978;2023-04-24T02:08:37;12.10;99.90
23532;DHT22;11943;52.270;20.978;2023-04-24T02:11:03;12.10;99.90
23532;DHT22;11943;52.270;20.978;2023-04-24T02:13:28;12.20;98.60
23532;DHT22;11943;52.270;20.978;2023-04-24T02:15:54;12.20;98.70
23532;DHT22;11943;52.270;20.978;2023-04-24T02:18:20;12.10;98.60
23532;DHT22;11943;52.270;20.978;2023-04-24T02:20:46;12.10;97.80
23532;DHT22;11943;52.270;20.978;2023-04-24T02:23:11;12.20;97.20
23532;DHT22;11943;52.270;20.978;2023-04-24T02:25:38;12.20;96.70
23532;DHT22;11943;52.270;20.978;2023-04-24T02:28:04;12.20;96.60
23532;DHT22;11943;52.270;20.978;2023-04-24T02:30:30;12.10;98.00
23532;DHT22;11943;52.270;20.978;2023-04-24T02:32:55;12.10;98.30
23532;DHT22;11943;52.270;20.978;2023-04-24T02:35:21;12.00;98.50
23532;DHT22;11943;52.270;20.978;2023-04-24T02:37:47;12.10;98.80
23532;DHT22;11943;52.270;20.978;2023-04-24T02:40:12;11.90;99.70
23532;DHT22;11943;52.270;20.978;2023-04-24T02:42:38;11.90;99.90
23532;DHT22;11943;52.270;20.978;2023-04-24T02:45:04;11.80;99.90
23532;DHT22;11943;52.270;20.978;2023-04-24T02:47:30;11.70;99.90
23532;DHT22;11943;52.270;20.978;2023-04-24T02:49:56;11.70;99.90
23532;DHT22;11943;52.270;20.978;2023-04-24T02:52:21;11.60;99.90
23532;DHT22;11943;52.270;20.978;2023-04-24T02:54:47;11.60;99.90
23532;DHT22;11943;52.270;20.978;2023-04-24T02:57:13;11.50;99.90
23532;DHT22;11943;52.270;20.978;2023-04-24T02:59:38;11.50;99.90
23532;DHT22;11943;52.270;20.978;2023-04-24T03:02:04;11.50;99.90
23532;DHT22;11943;52.270;20.978;2023-04-24T03:04:31;11.50;99.90
23532;DHT22;11943;52.270;20.978;2023-04-24T03:06:57;11.40;99.90
23532;DHT22;11943;52.270;20.978;2023-04-24T03:09:23;11.40;99.90
23532;DHT22;11943;52.270;20.978;2023-04-24T03:11:49;11.30;99.90
23532;DHT22;11943;52.270;20.978;2023-04-24T03:14:15;11.30;99.90
23532;DHT22;11943;52.270;20.978;2023-04-24T03:16:40;11.20;99.90
23532;DHT22;11943;52.270;20.978;2023-04-24T03:19:06;11.20;99.90
23532;DHT22;11943;52.270;20.978;2023-04-24T03:21:32;11.20;99.90
23532;DHT22;11943;52.270;20.978;2023-04-24T03:23:58;11.30;99.90
23532;DHT22;11943;52.270;20.978;2023-04-24T03:26:23;11.20;99.90
23532;DHT22;11943;52.270;20.978;2023-04-24T03:28:50;11.30;99.90
23532;DHT22;11943;52.270;20.978;2023-04-24T03:31:15;11.30;99.90
23532;DHT22;11943;52.270;20.978;2023-04-24T03:33:42;11.30;99.90
23532;DHT22;11943;52.270;20.978;2023-04-24T03:36:08;11.30;99.90
23532;DHT22;11943;52.270;20.978;2023-04-24T03:38:33;11.30;99.90
23532;DHT22;11943;52.270;20.978;2023-04-24T03:40:59;11.40;99.90
23532;DHT22;11943;52.270;20.978;2023-04-24T03:43:24;11.40;99.90
23532;DHT22;11943;52.270;20.978;2023-04-24T03:45:50;11.50;99.90
23532;DHT22;11943;52.270;20.978;2023-04-24T03:48:16;11.50;99.90
23532;DHT22;11943;52.270;20.978;2023-04-24T03:50:41;11.60;99.90
23532;DHT22;11943;52.270;20.978;2023-04-24T03:53:07;11.70;99.90
23532;DHT22;11943;52.270;20.978;2023-04-24T03:55:33;11.70;99.90
23532;DHT22;11943;52.270;20.978;2023-04-24T03:57:59;11.70;99.90
23532;DHT22;11943;52.270;20.978;2023-04-24T04:00:26;11.80;99.90
23532;DHT22;11943;52.270;20.978;2023-04-24T04:02:51;12.00;98.70
23532;DHT22;11943;52.270;20.978;2023-04-24T04:05:17;12.10;98.50
23532;DHT22;11943;52.270;20.978;2023-04-24T04:07:43;12.30;96.00
23532;DHT22;11943;52.270;20.978;2023-04-24T04:10:08;12.40;94.40
23532;DHT22;11943;52.270;20.978;2023-04-24T04:12:34;12.50;93.60
23532;DHT22;11943;52.270;20.978;2023-04-24T04:15:00;12.60;92.70
23532;DHT22;11943;52.270;20.978;2023-04-24T04:17:26;12.70;92.20
23532;DHT22;11943;52.270;20.978;2023-04-24T04:19:51;12.80;91.20
23532;DHT22;11943;52.270;20.978;2023-04-24T04:22:17;12.90;90.90
23532;DHT22;11943;52.270;20.978;2023-04-24T04:24:43;12.90;90.60
23532;DHT22;11943;52.270;20.978;2023-04-24T04:27:08;12.90;90.30
23532;DHT22;11943;52.270;20.978;2023-04-24T04:29:34;12.90;90.20
23532;DHT22;11943;52.270;20.978;2023-04-24T04:32:01;12.90;90.00
23532;DHT22;11943;52.270;20.978;2023-04-24T04:34:27;12.90;89.70
23532;DHT22;11943;52.270;20.978;2023-04-24T04:36:55;13.00;89.30
23532;DHT22;11943;52.270;20.978;2023-04-24T04:39:20;13.00;90.00
23532;DHT22;11943;52.270;20.978;2023-04-24T04:41:46;13.00;88.60
23532;DHT22;11943;52.270;20.978;2023-04-24T04:44:14;13.10;88.70
23532;DHT22;11943;52.270;20.978;2023-04-24T04:46:40;13.20;89.20
23532;DHT22;11943;52.270;20.978;2023-04-24T04:49:07;13.20;88.20
23532;DHT22;11943;52.270;20.978;2023-04-24T04:51:34;13.20;87.40
23532;DHT22;11943;52.270;20.978;2023-04-24T04:54:00;13.20;87.70
23532;DHT22;11943;52.270;20.978;2023-04-24T04:56:26;13.30;87.70
23532;DHT22;11943;52.270;20.978;2023-04-24T04:58:52;13.40;88.90
23532;DHT22;11943;52.270;20.978;2023-04-24T05:01:17;13.40;89.00
23532;DHT22;11943;52.270;20.978;2023-04-24T05:03:43;13.50;88.30
23532;DHT22;11943;52.270;20.978;2023-04-24T05:06:08;13.60;86.30
23532;DHT22;11943;52.270;20.978;2023-04-24T05:08:34;13.70;85.40
23532;DHT22;11943;52.270;20.978;2023-04-24T05:11:00;13.80;85.60
23532;DHT22;11943;52.270;20.978;2023-04-24T05:13:26;13.90;85.90
23532;DHT22;11943;52.270;20.978;2023-04-24T05:15:52;14.20;84.70
23532;DHT22;11943;52.270;20.978;2023-04-24T05:18:17;14.40;82.70
23532;DHT22;11943;52.270;20.978;2023-04-24T05:20:43;14.60;81.40
23532;DHT22;11943;52.270;20.978;2023-04-24T05:23:09;14.80;79.30
23532;DHT22;11943;52.270;20.978;2023-04-24T05:25:35;15.30;78.70
23532;DHT22;11943;52.270;20.978;2023-04-24T05:28:02;15.70;74.90
23532;DHT22;11943;52.270;20.978;2023-04-24T05:30:28;16.20;73.50
23532;DHT22;11943;52.270;20.978;2023-04-24T05:32:53;16.60;69.30
23532;DHT22;11943;52.270;20.978;2023-04-24T05:35:19;17.20;66.90
23532;DHT22;11943;52.270;20.978;2023-04-24T05:37:45;17.70;64.70
23532;DHT22;11943;52.270;20.978;2023-04-24T05:40:11;17.90;63.90
23532;DHT22;11943;52.270;20.978;2023-04-24T05:42:37;18.40;62.10
23532;DHT22;11943;52.270;20.978;2023-04-24T05:45:03;18.70;59.70
23532;DHT22;11943;52.270;20.978;2023-04-24T05:47:29;19.00;58.60
23532;DHT22;11943;52.270;20.978;2023-04-24T05:49:55;19.20;58.40
23532;DHT22;11943;52.270;20.978;2023-04-24T05:52:21;19.10;58.20
23532;DHT22;11943;52.270;20.978;2023-04-24T05:54:46;19.00;58.00
23532;DHT22;11943;52.270;20.978;2023-04-24T05:57:12;18.60;58.70
23532;DHT22;11943;52.270;20.978;2023-04-24T05:59:38;18.30;59.50
23532;DHT22;11943;52.270;20.978;2023-04-24T06:02:04;18.00;60.00
23532;DHT22;11943;52.270;20.978;2023-04-24T06:04:29;17.80;61.90
23532;DHT22;11943;52.270;20.978;2023-04-24T06:06:55;17.70;63.10
23532;DHT22;11943;52.270;20.978;2023-04-24T06:09:24;17.60;63.50
23532;DHT22;11943;52.270;20.978;2023-04-24T06:11:50;17.50;65.60
23532;DHT22;11943;52.270;20.978;2023-04-24T06:14:18;17.60;66.30
23532;DHT22;11943;52.270;20.978;2023-04-24T06:16:44;17.60;66.50
23532;DHT22;11943;52.270;20.978;2023-04-24T06:19:10;17.70;67.20
23532;DHT22;11943;52.270;20.978;2023-04-24T06:21:35;17.80;66.50
23532;DHT22;11943;52.270;20.978;2023-04-24T06:24:01;17.50;67.20
23532;DHT22;11943;52.270;20.978;2023-04-24T06:26:27;17.50;67.60
23532;DHT22;11943;52.270;20.978;2023-04-24T06:28:53;17.60;68.30
23532;DHT22;11943;52.270;20.978;2023-04-24T06:31:23;17.70;69.20
23532;DHT22;11943;52.270;20.978;2023-04-24T06:33:49;17.80;66.90
23532;DHT22;11943;52.270;20.978;2023-04-24T06:36:15;17.70;67.00
23532;DHT22;11943;52.270;20.978;2023-04-24T06:38:41;17.70;67.70
23532;DHT22;11943;52.270;20.978;2023-04-24T06:41:07;17.60;66.40
23532;DHT22;11943;52.270;20.978;2023-04-24T06:43:33;17.70;68.30
23532;DHT22;11943;52.270;20.978;2023-04-24T06:45:59;17.70;66.50
23532;DHT22;11943;52.270;20.978;2023-04-24T06:48:25;17.40;66.60
23532;DHT22;11943;52.270;20.978;2023-04-24T06:50:52;17.60;67.50
23532;DHT22;11943;52.270;20.978;2023-04-24T06:53:17;17.70;67.20
23532;DHT22;11943;52.270;20.978;2023-04-24T06:55:43;17.70;67.60
23532;DHT22;11943;52.270;20.978;2023-04-24T06:58:11;17.70;66.80
23532;DHT22;11943;52.270;20.978;2023-04-24T07:00:37;17.90;67.80
23532;DHT22;11943;52.270;20.978;2023-04-24T07:03:04;18.10;66.50
23532;DHT22;11943;52.270;20.978;2023-04-24T07:05:31;18.30;67.10
23532;DHT22;11943;52.270;20.978;2023-04-24T07:07:59;18.20;66.30
23532;DHT22;11943;52.270;20.978;2023-04-24T07:10:24;18.40;66.60
23532;DHT22;11943;52.270;20.978;2023-04-24T07:12:52;18.50;65.50
23532;DHT22;11943;52.270;20.978;2023-04-24T07:15:18;18.60;66.10
23532;DHT22;11943;52.270;20.978;2023-04-24T07:17:44;18.70;65.60
23532;DHT22;11943;52.270;20.978;2023-04-24T07:20:10;18.90;65.80
23532;DHT22;11943;52.270;20.978;2023-04-24T07:22:40;18.80;64.70
23532;DHT22;11943;52.270;20.978;2023-04-24T07:25:06;19.00;65.50
23532;DHT22;11943;52.270;20.978;2023-04-24T07:27:33;19.20;64.50
23532;DHT22;11943;52.270;20.978;2023-04-24T07:29:59;19.10;62.80
23532;DHT22;11943;52.270;20.978;2023-04-24T07:32:24;19.00;64.10
23532;DHT22;11943;52.270;20.978;2023-04-24T07:34:50;18.80;64.30
23532;DHT22;11943;52.270;20.978;2023-04-24T07:37:16;18.60;64.50
23532;DHT22;11943;52.270;20.978;2023-04-24T07:39:42;18.40;65.70
23532;DHT22;11943;52.270;20.978;2023-04-24T07:42:07;18.50;65.50
23532;DHT22;11943;52.270;20.978;2023-04-24T07:44:33;18.80;65.60
23532;DHT22;11943;52.270;20.978;2023-04-24T07:46:59;18.90;65.30
23532;DHT22;11943;52.270;20.978;2023-04-24T07:49:25;19.00;65.30
23532;DHT22;11943;52.270;20.978;2023-04-24T07:51:50;19.00;64.80
23532;DHT22;11943;52.270;20.978;2023-04-24T07:54:16;18.80;64.50
23532;DHT22;11943;52.270;20.978;2023-04-24T07:56:43;19.20;67.40
23532;DHT22;11943;52.270;20.978;2023-04-24T07:59:09;19.50;63.80
23532;DHT22;11943;52.270;20.978;2023-04-24T08:01:35;19.30;63.10
23532;DHT22;11943;52.270;20.978;2023-04-24T08:04:01;19.10;63.30
23532;DHT22;11943;52.270;20.978;2023-04-24T08:06:27;18.90;64.70
23532;DHT22;11943;52.270;20.978;2023-04-24T08:08:56;18.80;65.00
23532;DHT22;11943;52.270;20.978;2023-04-24T08:11:21;18.80;65.30
23532;DHT22;11943;52.270;20.978;2023-04-24T08:13:47;18.90;66.20
23532;DHT22;11943;52.270;20.978;2023-04-24T08:16:13;18.70;65.30
23532;DHT22;11943;52.270;20.978;2023-04-24T08:18:38;18.70;65.30
23532;DHT22;11943;52.270;20.978;2023-04-24T08:21:04;18.60;64.90
23532;DHT22;11943;52.270;20.978;2023-04-24T08:23:30;18.50;66.20
23532;DHT22;11943;52.270;20.978;2023-04-24T08:25:56;18.60;67.10
23532;DHT22;11943;52.270;20.978;2023-04-24T08:28:22;18.60;65.50
23532;DHT22;11943;52.270;20.978;2023-04-24T08:30:48;18.70;66.00
23532;DHT22;11943;52.270;20.978;2023-04-24T08:33:22;18.80;67.30
23532;DHT22;11943;52.270;20.978;2023-04-24T08:35:48;18.80;66.20
23532;DHT22;11943;52.270;20.978;2023-04-24T08:38:15;18.80;66.30
23532;DHT22;11943;52.270;20.978;2023-04-24T08:40:42;18.80;65.70
23532;DHT22;11943;52.270;20.978;2023-04-24T08:43:08;18.80;65.60
23532;DHT22;11943;52.270;20.978;2023-04-24T08:45:34;18.80;65.40
23532;DHT22;11943;52.270;20.978;2023-04-24T08:48:00;19.00;66.80
23532;DHT22;11943;52.270;20.978;2023-04-24T08:50:27;19.00;66.10
23532;DHT22;11943;52.270;20.978;2023-04-24T08:52:54;19.20;65.50
23532;DHT22;11943;52.270;20.978;2023-04-24T08:55:20;19.30;64.60
23532;DHT22;11943;52.270;20.978;2023-04-24T08:57:51;19.50;65.40
23532;DHT22;11943;52.270;20.978;2023-04-24T09:00:21;19.70;63.60
23532;DHT22;11943;52.270;20.978;2023-04-24T09:02:50;20.00;63.80
23532;DHT22;11943;52.270;20.978;2023-04-24T09:05:17;20.30;61.80
23532;DHT22;11943;52.270;20.978;2023-04-24T09:07:46;20.40;61.00
23532;DHT22;11943;52.270;20.978;2023-04-24T09:10:14;20.60;61.20
23532;DHT22;11943;52.270;20.978;2023-04-24T09:12:41;20.40;60.80
23532;DHT22;11943;52.270;20.978;2023-04-24T09:15:08;20.30;60.30
23532;DHT22;11943;52.270;20.978;2023-04-24T09:17:34;20.70;60.60
23532;DHT22;11943;52.270;20.978;2023-04-24T09:20:00;21.10;59.30
23532;DHT22;11943;52.270;20.978;2023-04-24T09:22:30;21.60;58.20
23532;DHT22;11943;52.270;20.978;2023-04-24T09:25:08;22.00;56.60
23532;DHT22;11943;52.270;20.978;2023-04-24T09:27:35;22.70;56.00
23532;DHT22;11943;52.270;20.978;2023-04-24T09:30:01;22.50;51.00
23532;DHT22;11943;52.270;20.978;2023-04-24T09:32:27;22.70;52.40
23532;DHT22;11943;52.270;20.978;2023-04-24T09:35:09;22.90;51.40
23532;DHT22;11943;52.270;20.978;2023-04-24T09:37:41;23.00;51.20
23532;DHT22;11943;52.270;20.978;2023-04-24T09:40:25;23.00;51.70
23532;DHT22;11943;52.270;20.978;2023-04-24T09:42:53;22.40;50.00
23532;DHT22;11943;52.270;20.978;2023-04-24T09:45:20;22.30;51.10
23532;DHT22;11943;52.270;20.978;2023-04-24T09:47:47;22.10;49.30
23532;DHT22;11943;52.270;20.978;2023-04-24T09:50:17;22.00;49.90
23532;DHT22;11943;52.270;20.978;2023-04-24T09:52:43;22.00;51.20
23532;DHT22;11943;52.270;20.978;2023-04-24T09:55:16;22.10;51.60
23532;DHT22;11943;52.270;20.978;2023-04-24T09:57:53;22.20;50.30
23532;DHT22;11943;52.270;20.978;2023-04-24T10:00:30;22.50;51.00
23532;DHT22;11943;52.270;20.978;2023-04-24T10:02:57;23.00;51.00
23532;DHT22;11943;52.270;20.978;2023-04-24T10:05:28;23.40;50.10
23532;DHT22;11943;52.270;20.978;2023-04-24T10:08:11;23.60;49.40
23532;DHT22;11943;52.270;20.978;2023-04-24T10:10:45;23.20;46.20
23532;DHT22;11943;52.270;20.978;2023-04-24T10:13:12;23.40;46.80
23532;DHT22;11943;52.270;20.978;2023-04-24T10:15:38;23.40;47.50
23532;DHT22;11943;52.270;20.978;2023-04-24T10:18:05;22.90;46.50
23532;DHT22;11943;52.270;20.978;2023-04-24T10:20:32;22.80;48.30
23532;DHT22;11943;52.270;20.978;2023-04-24T10:22:59;22.90;48.00
23532;DHT22;11943;52.270;20.978;2023-04-24T10:25:30;23.20;48.20
23532;DHT22;11943;52.270;20.978;2023-04-24T10:27:57;23.10;46.80
23532;DHT22;11943;52.270;20.978;2023-04-24T10:30:29;23.50;47.40
23532;DHT22;11943;52.270;20.978;2023-04-24T10:32:56;23.60;47.40
23532;DHT22;11943;52.270;20.978;2023-04-24T10:35:22;23.80;47.30
23532;DHT22;11943;52.270;20.978;2023-04-24T10:37:56;23.50;46.50
23532;DHT22;11943;52.270;20.978;2023-04-24T10:40:41;23.50;48.10
23532;DHT22;11943;52.270;20.978;2023-04-24T10:43:08;23.60;49.20
23532;DHT22;11943;52.270;20.978;2023-04-24T10:45:37;23.60;49.70
23532;DHT22;11943;52.270;20.978;2023-04-24T10:48:07;23.70;48.30
23532;DHT22;11943;52.270;20.978;2023-04-24T10:50:52;23.70;48.80
23532;DHT22;11943;52.270;20.978;2023-04-24T10:53:20;23.70;49.10
23532;DHT22;11943;52.270;20.978;2023-04-24T10:56:02;23.80;48.70
23532;DHT22;11943;52.270;20.978;2023-04-24T10:58:45;23.70;48.50
23532;DHT22;11943;52.270;20.978;2023-04-24T11:01:32;23.50;47.80
23532;DHT22;11943;52.270;20.978;2023-04-24T11:04:00;23.60;49.00
23532;DHT22;11943;52.270;20.978;2023-04-24T11:06:33;23.60;48.30
23532;DHT22;11943;52.270;20.978;2023-04-24T11:09:10;23.50;46.10
23532;DHT22;11943;52.270;20.978;2023-04-24T11:11:45;23.60;47.10
23532;DHT22;11943;52.270;20.978;2023-04-24T11:14:10;23.80;47.30
23532;DHT22;11943;52.270;20.978;2023-04-24T11:16:51;24.10;46.30
23532;DHT22;11943;52.270;20.978;2023-04-24T11:19:26;24.00;46.60
23532;DHT22;11943;52.270;20.978;2023-04-24T11:22:00;24.20;45.20
23532;DHT22;11943;52.270;20.978;2023-04-24T11:24:30;24.40;45.60
23532;DHT22;11943;52.270;20.978;2023-04-24T11:27:19;23.70;42.70
23532;DHT22;11943;52.270;20.978;2023-04-24T11:29:49;23.90;44.40
23532;DHT22;11943;52.270;20.978;2023-04-24T11:34:59;24.30;42.40
23532;DHT22;11943;52.270;20.978;2023-04-24T11:37:29;23.80;42.50
23532;DHT22;11943;52.270;20.978;2023-04-24T11:39:57;23.90;43.00
23532;DHT22;11943;52.270;20.978;2023-04-24T11:42:23;24.10;44.00
23532;DHT22;11943;52.270;20.978;2023-04-24T11:44:52;24.40;44.30
23532;DHT22;11943;52.270;20.978;2023-04-24T11:47:18;24.40;40.80
23532;DHT22;11943;52.270;20.978;2023-04-24T11:49:43;24.60;42.40
23532;DHT22;11943;52.270;20.978;2023-04-24T11:52:09;24.40;41.30
23532;DHT22;11943;52.270;20.978;2023-04-24T11:54:36;24.50;42.10
23532;DHT22;11943;52.270;20.978;2023-04-24T11:57:05;24.40;41.00
23532;DHT22;11943;52.270;20.978;2023-04-24T11:59:36;24.60;40.30
23532;DHT22;11943;52.270;20.978;2023-04-24T12:02:02;24.60;40.90
23532;DHT22;11943;52.270;20.978;2023-04-24T12:04:41;24.50;39.10
23532;DHT22;11943;52.270;20.978;2023-04-24T12:07:07;24.20;38.40
23532;DHT22;11943;52.270;20.978;2023-04-24T12:12:12;24.10;40.00
23532;DHT22;11943;52.270;20.978;2023-04-24T12:14:52;23.90;39.00
23532;DHT22;11943;52.270;20.978;2023-04-24T12:17:30;24.00;40.20
23532;DHT22;11943;52.270;20.978;2023-04-24T12:20:04;24.20;41.50
23532;DHT22;11943;52.270;20.978;2023-04-24T12:22:51;24.40;41.00
23532;DHT22;11943;52.270;20.978;2023-04-24T12:25:21;24.20;39.70
23532;DHT22;11943;52.270;20.978;2023-04-24T12:30:35;24.40;40.90
23532;DHT22;11943;52.270;20.978;2023-04-24T12:33:03;24.60;40.50
23532;DHT22;11943;52.270;20.978;2023-04-24T12:35:29;24.50;40.90
23532;DHT22;11943;52.270;20.978;2023-04-24T12:38:05;24.70;41.40
23532;DHT22;11943;52.270;20.978;2023-04-24T12:40:31;24.60;38.80
23532;DHT22;11943;52.270;20.978;2023-04-24T12:42:57;24.30;40.50
23532;DHT22;11943;52.270;20.978;2023-04-24T12:45:22;24.30;38.40
23532;DHT22;11943;52.270;20.978;2023-04-24T12:47:50;24.40;39.70
23532;DHT22;11943;52.270;20.978;2023-04-24T12:50:16;24.40;39.00
23532;DHT22;11943;52.270;20.978;2023-04-24T12:52:42;23.90;41.00
23532;DHT22;11943;52.270;20.978;2023-04-24T12:55:08;23.30;41.80
23532;DHT22;11943;52.270;20.978;2023-04-24T12:57:36;22.60;44.60
23532;DHT22;11943;52.270;20.978;2023-04-24T13:00:02;21.90;46.50
23532;DHT22;11943;52.270;20.978;2023-04-24T13:02:29;21.50;48.60
23532;DHT22;11943;52.270;20.978;2023-04-24T13:04:56;21.80;49.60
23532;DHT22;11943;52.270;20.978;2023-04-24T13:07:22;21.40;49.80
23532;DHT22;11943;52.270;20.978;2023-04-24T13:09:49;21.20;50.10
23532;DHT22;11943;52.270;20.978;2023-04-24T13:12:15;21.10;50.10
23532;DHT22;11943;52.270;20.978;2023-04-24T13:14:41;21.50;50.50
23532;DHT22;11943;52.270;20.978;2023-04-24T13:17:06;21.60;49.80
23532;DHT22;11943;52.270;20.978;2023-04-24T13:19:41;21.50;49.20
23532;DHT22;11943;52.270;20.978;2023-04-24T13:22:09;21.70;49.50
23532;DHT22;11943;52.270;20.978;2023-04-24T13:24:35;21.70;49.80
23532;DHT22;11943;52.270;20.978;2023-04-24T13:27:01;21.60;48.50
23532;DHT22;11943;52.270;20.978;2023-04-24T13:29:27;21.60;49.10
23532;DHT22;11943;52.270;20.978;2023-04-24T13:31:54;21.50;50.40
23532;DHT22;11943;52.270;20.978;2023-04-24T13:34:21;21.70;49.40
23532;DHT22;11943;52.270;20.978;2023-04-24T13:36:47;21.50;48.60
23532;DHT22;11943;52.270;20.978;2023-04-24T13:39:12;21.70;48.50
23532;DHT22;11943;52.270;20.978;2023-04-24T13:41:38;21.70;48.10
23532;DHT22;11943;52.270;20.978;2023-04-24T13:44:05;21.90;48.10
23532;DHT22;11943;52.270;20.978;2023-04-24T13:46:31;21.80;46.70
23532;DHT22;11943;52.270;20.978;2023-04-24T13:48:57;21.90;48.00
23532;DHT22;11943;52.270;20.978;2023-04-24T13:51:27;21.70;46.30
23532;DHT22;11943;52.270;20.978;2023-04-24T13:53:53;21.70;47.20
23532;DHT22;11943;52.270;20.978;2023-04-24T13:56:19;21.60;46.30
23532;DHT22;11943;52.270;20.978;2023-04-24T13:58:45;21.30;46.60
23532;DHT22;11943;52.270;20.978;2023-04-24T14:01:11;20.90;47.00
23532;DHT22;11943;52.270;20.978;2023-04-24T14:03:37;21.00;47.50
23532;DHT22;11943;52.270;20.978;2023-04-24T14:06:03;21.20;47.40
23532;DHT22;11943;52.270;20.978;2023-04-24T14:08:29;21.50;46.70
23532;DHT22;11943;52.270;20.978;2023-04-24T14:10:55;21.60;45.50
23532;DHT22;11943;52.270;20.978;2023-04-24T14:13:20;22.00;45.60
23532;DHT22;11943;52.270;20.978;2023-04-24T14:15:46;21.70;44.90
23532;DHT22;11943;52.270;20.978;2023-04-24T14:18:12;21.80;45.30
23532;DHT22;11943;52.270;20.978;2023-04-24T14:20:38;22.00;45.20
23532;DHT22;11943;52.270;20.978;2023-04-24T14:23:04;22.20;43.50
23532;DHT22;11943;52.270;20.978;2023-04-24T14:25:30;22.50;43.10
23532;DHT22;11943;52.270;20.978;2023-04-24T14:27:55;22.80;42.70
23532;DHT22;11943;52.270;20.978;2023-04-24T14:30:21;22.60;41.10
23532;DHT22;11943;52.270;20.978;2023-04-24T14:32:47;22.30;40.80
23532;DHT22;11943;52.270;20.978;2023-04-24T14:35:13;22.20;41.60
23532;DHT22;11943;52.270;20.978;2023-04-24T14:37:40;22.20;42.10
23532;DHT22;11943;52.270;20.978;2023-04-24T14:40:07;21.90;41.40
23532;DHT22;11943;52.270;20.978;2023-04-24T14:42:34;22.00;42.30
23532;DHT22;11943;52.270;20.978;2023-04-24T14:45:00;22.10;43.90
23532;DHT22;11943;52.270;20.978;2023-04-24T14:47:26;22.10;42.50
23532;DHT22;11943;52.270;20.978;2023-04-24T14:49:52;22.00;42.20
23532;DHT22;11943;52.270;20.978;2023-04-24T14:52:17;22.10;43.00
23532;DHT22;11943;52.270;20.978;2023-04-24T14:54:43;22.10;44.20
23532;DHT22;11943;52.270;20.978;2023-04-24T14:57:09;22.00;42.60
23532;DHT22;11943;52.270;20.978;2023-04-24T14:59:35;21.90;43.00
23532;DHT22;11943;52.270;20.978;2023-04-24T15:02:01;21.80;43.40
23532;DHT22;11943;52.270;20.978;2023-04-24T15:04:28;21.70;43.20
23532;DHT22;11943;52.270;20.978;2023-04-24T15:06:54;21.50;43.60
23532;DHT22;11943;52.270;20.978;2023-04-24T15:09:21;21.40;43.00
23532;DHT22;11943;52.270;20.978;2023-04-24T15:11:47;21.20;42.50
23532;DHT22;11943;52.270;20.978;2023-04-24T15:14:14;21.10;44.20
23532;DHT22;11943;52.270;20.978;2023-04-24T15:16:40;21.00;44.50
23532;DHT22;11943;52.270;20.978;2023-04-24T15:19:06;21.00;44.20
23532;DHT22;11943;52.270;20.978;2023-04-24T15:21:31;20.90;44.70
23532;DHT22;11943;52.270;20.978;2023-04-24T15:23:57;20.70;45.70